Greenwich, Ohio
Current Conditions -  °F | °C
As of 12:52 AM on Wednesday 22 Oct 2014 (Local Time) from KMFD Reporting Station
Overcast Overcast  
Wind Chill: 39°   Ceiling: 800
Heat Index: 44°   Visibility: 10mi
Dew Point: 44°   Wind: 9mph
Humidity: 100%   Direction: 330°NNW
Pressure: 30.13"   Gusts: NA
Location:  41.03°N, 82.52°W
Report Text: KMFD 220452Z AUTO 33008KT 10SM OVC008 07/07 A3013 RMK AO2 RAE00 CIG 004V011 SLP207 P0000 T00670067 401060061
Loading
Personal Weather Stations






























Interactive Weather Map
Tropical Storm Tracking
New forecast layout! Learn more

10-Day Weather Forecast

Advertisements
Track Severe Weather on mobile